LLSDLCLK

Guest
Details From LLSD - Sde Dov
To LCLK - Larnaca
Flight Number -
Tags generated
Created
Modified
Stats Distance 176 nm / 325 km
Max Altitude 20,500 ft / 6,248 m
Waypoints 3
Social Downloads 0
Likes 0
Share VATSIM

Download

Looking for another format? Having issues loading an existing format? Contact us
Advertisement - Login to hide

Notes

Basic altitude profile: - Ascent Rate: 500ft/min - Ascent Speed: 80kts - Cruise Altitude: 6500ft - Cruise Speed: 110kts - Descent Rate: 700ft/min - Descent Speed: 100kts Options: - Use NATs: no - Use PACOTS: no - Use low airways: yes - Use high airways: no

Route

LLSD TIROS LCLK

ID Type Via Altitude Latitude Longitude Leg Dist Tot Dist Heading (true) Name
O LLSD APT - 0 ft / 0 m 32.11466˚ 34.78224˚ - 0 nm - Sde Dov
TIROS FIX - 20,500 ft / 6,248 m 33.30000˚ 34.31667˚ 74 nm 74 nm 342° / 342° -
O LCLK APT - 0 ft / 0 m 34.87512˚ 33.62483˚ 100 nm 175 nm 340° / 340° Larnaca

Altitude Profile

Advertisement - Login to hide

Weather


0- 5 10 15 20 25 30 35+ Temperature / ° C

Clouds and Precipitation
Forecast for 2017-12-16 18:00 UTC. Updated 16 minutes ago

Ground ~20,000 ft ~40,000 ft Winds

LLSD

Details ICAO LLSD (SDV)
Name Sde Dov
Region Israel
Timezone Asia/Jerusalem (UTC+2.0)
Stats Elevation 43 ft / 13 m (AMSL)
Location 32.114661° 34.782238°
Runways 1
Magnetic Variation 4.697° E

METAR

LLSD 161450Z 34008KT CAVOK 20/11 Q1020

Decode

TAF

TAF LLSD 161113Z 1612/1712 33006KT CAVOK BECMG 1614/1616 04005KT BECMG 1620/1622 12004KT BECMG 1707/1710 30006KT TX21/1612Z TN12/1704Z

Decode

Departure Runways

ID Width Length Bearing (true) Bearing (mag) Surface Threshold Offset Overrun Length
03 98 ft / 30 m 5,704 ft / 1,738 m 27.61° 22.91° Asphalt 341 ft / 104 m 0 ft / 0 m
21 98 ft / 30 m 5,704 ft / 1,738 m 207.61° 202.91° Asphalt 230 ft / 70 m 0 ft / 0 m

LCLK

Details ICAO LCLK (LCA)
Name Larnaca
Region Cyprus
Timezone Asia/Nicosia (UTC+2.0)
Stats Elevation 8 ft / 2 m (AMSL)
Location 34.875115° 33.624832°
Runways 1
Magnetic Variation 4.991° E

METAR

LCLK 161530Z 25006KT 9999 FEW025 BKN060 18/13 Q1021 NOSIG

Decode

TAF

TAF LCLK 161130Z 1612/1712 21011KT 9999 FEW020 SCT030 BECMG 1616/1619 31006KT PROB30 1701/1706 5000 BR BECMG 1709/1712 15010KT

Decode

Destination Runways

ID Width Length Bearing (true) Bearing (mag) Surface Threshold Offset Overrun Length
04 148 ft / 45 m 9,771 ft / 2,978 m 45.15° 40.16° Asphalt 0 ft / 0 m 210 ft / 64 m
22 148 ft / 45 m 9,771 ft / 2,978 m 225.17° 220.18° Asphalt 575 ft / 175 m 0 ft / 0 m

Approach Navaids

Runway Type Ident Frequency Range Bearing (true) Bearing (mag) Slope Elevation
22 Localiser ILC 110.30 MHz 18 nm / 33 km 225.17° 220.18° - 8 ft / 2 m (AMSL)
22 Glidescope ILC 110.30 MHz 10 nm / 19 km 225.16° 220.17° 2.75° 24 ft / 7 m (AMSL)
22 DME ILC 110.30 MHz 18 nm / 33 km - - - 20 ft / 6 m (AMSL)

Popular Alternatives